SUMZM TDCF-TFFF
Flight info
| Callsign | SUMZM |
|---|---|
| Flight time | 0h 21m |
| Altitude | 7000 |
| Route | TFFF |
| Aircraft | PC12/L-SDFGRWY/S |
Departure
| Time | 2026-05-08 16:04 |
|---|---|
| Airport | Canefield Airport (TDCF) |
Arrival
| Time | 2026-05-08 16:26 |
|---|---|
| Airport | Martinique Aimé Césaire International Airport (TFFF) |
| Time | Latitude | Longitude | Altitude | Speed | Heading |
|---|---|---|---|---|---|
| 2026-05-08 15:49 | 15.33993 | -61.39182 | 28 ft | 0 kts | 174° |
| 2026-05-08 16:01 | 15.33981 | -61.39181 | 31 ft | 5 kts | 182° |
| 2026-05-08 16:01 | 15.33931 | -61.39187 | 28 ft | 9 kts | 191° |
| 2026-05-08 16:01 | 15.33873 | -61.39223 | 26 ft | 12 kts | 182° |
| 2026-05-08 16:01 | 15.33780 | -61.39220 | 23 ft | 14 kts | 177° |
| 2026-05-08 16:02 | 15.33660 | -61.39212 | 22 ft | 21 kts | 178° |
| 2026-05-08 16:02 | 15.33496 | -61.39202 | 21 ft | 25 kts | 175° |
| 2026-05-08 16:02 | 15.33381 | -61.39209 | 18 ft | 16 kts | 188° |
| 2026-05-08 16:02 | 15.33304 | -61.39185 | 18 ft | 8 kts | 50° |
| 2026-05-08 16:03 | 15.33365 | -61.39192 | 18 ft | 1 kts | 355° |
| 2026-05-08 16:03 | 15.33432 | -61.39198 | 20 ft | 34 kts | 349° |
| 2026-05-08 16:03 | 15.33859 | -61.39234 | 25 ft | 85 kts | 6° |
| 2026-05-08 16:04 | 15.34505 | -61.39399 | 227 ft | 106 kts | 326° |
| 2026-05-08 16:04 | 15.34709 | -61.40099 | 622 ft | 106 kts | 245° |
| 2026-05-08 16:04 | 15.34144 | -61.40496 | 1007 ft | 103 kts | 180° |
| 2026-05-08 16:04 | 15.33395 | -61.40500 | 1391 ft | 108 kts | 174° |
| 2026-05-08 16:05 | 15.32627 | -61.40510 | 1825 ft | 109 kts | 181° |
| 2026-05-08 16:05 | 15.31878 | -61.40495 | 2222 ft | 114 kts | 174° |
| 2026-05-08 16:05 | 15.31050 | -61.40507 | 2693 ft | 125 kts | 176° |
| 2026-05-08 16:05 | 15.30174 | -61.40420 | 3209 ft | 127 kts | 153° |
| 2026-05-08 16:06 | 15.29433 | -61.39937 | 3819 ft | 127 kts | 128° |
| 2026-05-08 16:06 | 15.28850 | -61.39234 | 4483 ft | 131 kts | 126° |
| 2026-05-08 16:06 | 15.28241 | -61.38481 | 4985 ft | 150 kts | 126° |
| 2026-05-08 16:06 | 15.27535 | -61.37592 | 5353 ft | 169 kts | 126° |
| 2026-05-08 16:07 | 15.26755 | -61.36598 | 5732 ft | 185 kts | 126° |
| 2026-05-08 16:07 | 15.25924 | -61.35532 | 6097 ft | 193 kts | 126° |
| 2026-05-08 16:07 | 15.24881 | -61.34662 | 6478 ft | 204 kts | 156° |
| 2026-05-08 16:07 | 15.23432 | -61.34464 | 6886 ft | 213 kts | 175° |
| 2026-05-08 16:08 | 15.21888 | -61.34315 | 6983 ft | 230 kts | 164° |
| 2026-05-08 16:08 | 15.20317 | -61.33842 | 6986 ft | 240 kts | 158° |
| 2026-05-08 16:08 | 15.18700 | -61.33309 | 6983 ft | 246 kts | 160° |
| 2026-05-08 16:08 | 15.17036 | -61.32831 | 6983 ft | 249 kts | 162° |
| 2026-05-08 16:09 | 15.15377 | -61.32382 | 6984 ft | 249 kts | 161° |
| 2026-05-08 16:09 | 15.13709 | -61.31920 | 6985 ft | 247 kts | 161° |
| 2026-05-08 16:09 | 15.12050 | -61.31450 | 6981 ft | 247 kts | 161° |
| 2026-05-08 16:09 | 15.10390 | -61.30979 | 6984 ft | 246 kts | 162° |
| 2026-05-08 16:10 | 15.08731 | -61.30511 | 6985 ft | 247 kts | 162° |
| 2026-05-08 16:10 | 15.07076 | -61.30043 | 6985 ft | 247 kts | 162° |
| 2026-05-08 16:10 | 15.05420 | -61.29575 | 7005 ft | 246 kts | 161° |
| 2026-05-08 16:10 | 15.03765 | -61.29107 | 7015 ft | 246 kts | 161° |
| 2026-05-08 16:11 | 15.02106 | -61.28637 | 7030 ft | 246 kts | 162° |
| 2026-05-08 16:11 | 15.00447 | -61.28167 | 7041 ft | 247 kts | 162° |
| 2026-05-08 16:11 | 14.98813 | -61.27703 | 7056 ft | 246 kts | 162° |
| 2026-05-08 16:11 | 14.97156 | -61.27233 | 7067 ft | 246 kts | 162° |
| 2026-05-08 16:12 | 14.95507 | -61.26767 | 7087 ft | 247 kts | 162° |
| 2026-05-08 16:12 | 14.93850 | -61.26299 | 7108 ft | 247 kts | 162° |
| 2026-05-08 16:12 | 14.92191 | -61.25831 | 7117 ft | 247 kts | 162° |
| 2026-05-08 16:12 | 14.90529 | -61.25362 | 7128 ft | 247 kts | 162° |
| 2026-05-08 16:13 | 14.88869 | -61.24893 | 7159 ft | 247 kts | 162° |
| 2026-05-08 16:13 | 14.87206 | -61.24423 | 7174 ft | 247 kts | 162° |
| 2026-05-08 16:13 | 14.85544 | -61.23954 | 7189 ft | 247 kts | 162° |
| 2026-05-08 16:13 | 14.83910 | -61.23492 | 7200 ft | 247 kts | 162° |
| 2026-05-08 16:14 | 14.82252 | -61.23023 | 7203 ft | 247 kts | 162° |
| 2026-05-08 16:14 | 14.80602 | -61.22558 | 7245 ft | 246 kts | 162° |
| 2026-05-08 16:14 | 14.78947 | -61.22090 | 7199 ft | 243 kts | 162° |
| 2026-05-08 16:14 | 14.77327 | -61.21636 | 6888 ft | 238 kts | 162° |
| 2026-05-08 16:15 | 14.75747 | -61.21191 | 6583 ft | 233 kts | 162° |
| 2026-05-08 16:15 | 14.74189 | -61.20750 | 6274 ft | 231 kts | 161° |
| 2026-05-08 16:15 | 14.72646 | -61.20313 | 5952 ft | 228 kts | 161° |
| 2026-05-08 16:15 | 14.71119 | -61.19882 | 5628 ft | 226 kts | 162° |
| 2026-05-08 16:16 | 14.69609 | -61.19457 | 5313 ft | 224 kts | 162° |
| 2026-05-08 16:16 | 14.68106 | -61.19033 | 5000 ft | 223 kts | 162° |
| 2026-05-08 16:16 | 14.66614 | -61.18611 | 4683 ft | 221 kts | 161° |
| 2026-05-08 16:16 | 14.65158 | -61.18201 | 4366 ft | 219 kts | 161° |
| 2026-05-08 16:17 | 14.63674 | -61.17787 | 4043 ft | 217 kts | 162° |
| 2026-05-08 16:17 | 14.62706 | -61.17516 | 3832 ft | 216 kts | 161° |
| 2026-05-08 16:17 | 14.60809 | -61.16995 | 3414 ft | 203 kts | 162° |
| 2026-05-08 16:17 | 14.59500 | -61.16642 | 3092 ft | 186 kts | 161° |
| 2026-05-08 16:18 | 14.58281 | -61.16315 | 2772 ft | 176 kts | 161° |
| 2026-05-08 16:18 | 14.57116 | -61.16005 | 2451 ft | 170 kts | 161° |
| 2026-05-08 16:18 | 14.55966 | -61.15884 | 2128 ft | 169 kts | 189° |
| 2026-05-08 16:18 | 14.54899 | -61.16283 | 1994 ft | 153 kts | 180° |
| 2026-05-08 16:19 | 14.54064 | -61.15966 | 2001 ft | 111 kts | 121° |
| 2026-05-08 16:19 | 14.54053 | -61.15353 | 2003 ft | 86 kts | 45° |
| 2026-05-08 16:19 | 14.54630 | -61.15265 | 2005 ft | 90 kts | 5° |
| 2026-05-08 16:19 | 14.55254 | -61.15226 | 2002 ft | 89 kts | 17° |
| 2026-05-08 16:20 | 14.55790 | -61.14924 | 2003 ft | 87 kts | 46° |
| 2026-05-08 16:20 | 14.56132 | -61.14392 | 2018 ft | 89 kts | 60° |
| 2026-05-08 16:20 | 14.56418 | -61.13799 | 2051 ft | 93 kts | 64° |
| 2026-05-08 16:20 | 14.56685 | -61.13123 | 2052 ft | 106 kts | 66° |
| 2026-05-08 16:21 | 14.56899 | -61.12486 | 2007 ft | 89 kts | 72° |
| 2026-05-08 16:21 | 14.57057 | -61.11864 | 1852 ft | 92 kts | 75° |
| 2026-05-08 16:21 | 14.57203 | -61.11217 | 1671 ft | 97 kts | 76° |
| 2026-05-08 16:21 | 14.57316 | -61.10525 | 1549 ft | 97 kts | 77° |
| 2026-05-08 16:22 | 14.57406 | -61.09857 | 1535 ft | 90 kts | 79° |
| 2026-05-08 16:22 | 14.57552 | -61.09214 | 1463 ft | 95 kts | 77° |
| 2026-05-08 16:22 | 14.57687 | -61.08525 | 1319 ft | 101 kts | 77° |
| 2026-05-08 16:22 | 14.57782 | -61.07820 | 1207 ft | 103 kts | 78° |
| 2026-05-08 16:23 | 14.57937 | -61.07049 | 1027 ft | 115 kts | 75° |
| 2026-05-08 16:23 | 14.58088 | -61.06307 | 894 ft | 96 kts | 78° |
| 2026-05-08 16:23 | 14.58208 | -61.05650 | 762 ft | 88 kts | 79° |
| 2026-05-08 16:24 | 14.58265 | -61.05068 | 658 ft | 93 kts | 78° |
| 2026-05-08 16:24 | 14.58371 | -61.04415 | 594 ft | 91 kts | 73° |
| 2026-05-08 16:24 | 14.58468 | -61.03760 | 464 ft | 91 kts | 75° |
| 2026-05-08 16:25 | 14.58594 | -61.03148 | 385 ft | 76 kts | 73° |
| 2026-05-08 16:25 | 14.58695 | -61.02643 | 198 ft | 71 kts | 71° |
| 2026-05-08 16:25 | 14.58791 | -61.02156 | 99 ft | 68 kts | 75° |
| 2026-05-08 16:25 | 14.58873 | -61.01692 | 26 ft | 63 kts | 75° |
| 2026-05-08 16:26 | 14.58935 | -61.01333 | 21 ft | 37 kts | 81° |
| 2026-05-08 16:26 | 14.58961 | -61.01168 | 21 ft | 19 kts | 77° |
| 2026-05-08 16:26 | 14.58988 | -61.01041 | 19 ft | 18 kts | 79° |
| 2026-05-08 16:26 | 14.59006 | -61.00907 | 18 ft | 20 kts | 83° |
| 2026-05-08 16:27 | 14.59028 | -61.00765 | 18 ft | 21 kts | 83° |
| 2026-05-08 16:27 | 14.59114 | -61.00686 | 15 ft | 10 kts | 349° |
| 2026-05-08 16:27 | 14.59197 | -61.00701 | 14 ft | 14 kts | 350° |
| 2026-05-08 16:27 | 14.59277 | -61.00698 | 14 ft | 7 kts | 14° |
| 2026-05-08 16:28 | 14.59286 | -61.00697 | 14 ft | 0 kts | 353° |
| 2026-05-08 16:28 | 14.59306 | -61.00688 | 14 ft | 8 kts | 27° |
| 2026-05-08 16:28 | 14.59332 | -61.00686 | 14 ft | 0 kts | 350° |